Aérodrome :
LOGIN :

S'inscrire | Disclaimer

   EN    FR    IT 

 










Légende :    VFR   VFR Marginal   IFR   IFR Intensif   IFR Très Intensif
Visi : 
Plafond : 
>= 8 km
>= 3000ft
5 à 8 km
1000 à 3000 ft
1500m à 5 km
500 à 1000 ft
800 à 1500m
200 à 500 ft
< 800m
< 200 ft
Symboles :   Orages  Brouillard  Fortes neiges  Fortes précipitations  Vent > 20 kt
SIGMETs :   Divers  Orages  Givrage  Turbulence  Onde Orograph.  Cendres Volcan.







- Altitude de l'aérodrome : 160 ft
- Code IATA : FMO


EDDG - Münster Osnabrück Int.

DERNIER METAR :
  • 231650Z 27009KT 9999 BKN028 13/09 Q1018 NOSIG

METARs EXPIRÉS :
  • 231620Z 27010KT 9999 BKN022 13/09 Q1018 NOSIG
  • 231550Z 26012KT 9999 BKN023 13/09 Q1018 NOSIG
  • 231520Z 27012KT 9999 BKN023 13/08 Q1017 NOSIG
  • 231450Z 27012KT 9999 BKN023 13/09 Q1017 NOSIG
  • 231420Z 27018KT 9999 BKN024 13/09 Q1017 NOSIG

TAF AMD TAF EDDG
Valide du 23 à 13h jusqu'au 24 à 12h UTC


231355Z 2313/2412 26015KT 9999 BKN025
BECMG 2314/2316 26010KT
BECMG 2316/2318 25005KT
TEMPO 2320/2401 BKN011
BECMG 2322/2324 17004KT
BECMG 2401/2404 BKN008
TEMPO 2402/2409 4500 BR BKN004
BECMG 2408/2411 21009KT
Pas de NOTAMs connus pour ce terrain.



MET'MAP, la Météo Aéronautique d'un coup d'oeil ! - Copyright ORBIFLY Décembre 2007 - Disclaimer

ORBIFLY MET'MAP TEAM :

Programmation & Développement : Alexandra Zaïnal
Conception & Développement : Baudouin d'Aumeries
Co-Programmation & Développement : Marc-Olivier Méhu
Soutien technique & logistique : Manuel Goepfert

Contact : metmap@orbifly.com




SOURCES & CREDITS :

   NOAA